sensor_id;sensor_type;location;lat;lon;timestamp;P1;durP1;ratioP1;P2;durP2;ratioP2
35715;SDS011;21840;44.920;8.616;2022-07-23T00:00:04;10.93;;;5.93;;
35715;SDS011;21840;44.920;8.616;2022-07-23T00:02:31;10.13;;;6.03;;
35715;SDS011;21840;44.920;8.616;2022-07-23T00:04:57;14.25;;;6.32;;
35715;SDS011;21840;44.920;8.616;2022-07-23T00:07:22;15.02;;;6.88;;
35715;SDS011;21840;44.920;8.616;2022-07-23T00:09:48;14.45;;;6.47;;
35715;SDS011;21840;44.920;8.616;2022-07-23T00:12:13;11.93;;;6.10;;
35715;SDS011;21840;44.920;8.616;2022-07-23T00:14:39;18.33;;;7.05;;
35715;SDS011;21840;44.920;8.616;2022-07-23T00:17:04;18.20;;;6.25;;
35715;SDS011;21840;44.920;8.616;2022-07-23T00:19:30;9.60;;;5.90;;
35715;SDS011;21840;44.920;8.616;2022-07-23T00:21:55;13.35;;;6.05;;
35715;SDS011;21840;44.920;8.616;2022-07-23T00:24:21;9.35;;;5.78;;
35715;SDS011;21840;44.920;8.616;2022-07-23T00:26:49;12.50;;;5.72;;
35715;SDS011;21840;44.920;8.616;2022-07-23T00:29:15;12.27;;;6.25;;
35715;SDS011;21840;44.920;8.616;2022-07-23T00:31:40;10.90;;;6.25;;
35715;SDS011;21840;44.920;8.616;2022-07-23T00:34:06;16.67;;;6.28;;
35715;SDS011;21840;44.920;8.616;2022-07-23T00:36:34;17.75;;;5.90;;
35715;SDS011;21840;44.920;8.616;2022-07-23T00:39:00;12.07;;;6.57;;
35715;SDS011;21840;44.920;8.616;2022-07-23T00:41:25;10.75;;;6.45;;
35715;SDS011;21840;44.920;8.616;2022-07-23T00:43:51;13.60;;;6.28;;
35715;SDS011;21840;44.920;8.616;2022-07-23T00:46:20;12.00;;;6.20;;
35715;SDS011;21840;44.920;8.616;2022-07-23T00:48:46;12.68;;;6.65;;
35715;SDS011;21840;44.920;8.616;2022-07-23T00:51:11;12.00;;;6.15;;
35715;SDS011;21840;44.920;8.616;2022-07-23T00:53:37;10.30;;;6.57;;
35715;SDS011;21840;44.920;8.616;2022-07-23T00:56:02;11.13;;;6.00;;
35715;SDS011;21840;44.920;8.616;2022-07-23T00:58:28;15.55;;;6.43;;
35715;SDS011;21840;44.920;8.616;2022-07-23T01:00:54;10.98;;;6.07;;
35715;SDS011;21840;44.920;8.616;2022-07-23T01:03:19;9.73;;;5.72;;
35715;SDS011;21840;44.920;8.616;2022-07-23T01:05:45;10.43;;;6.15;;
35715;SDS011;21840;44.920;8.616;2022-07-23T01:08:11;9.65;;;6.30;;
35715;SDS011;21840;44.920;8.616;2022-07-23T01:10:37;10.90;;;6.50;;
35715;SDS011;21840;44.920;8.616;2022-07-23T01:13:07;9.55;;;6.00;;
35715;SDS011;21840;44.920;8.616;2022-07-23T01:15:36;13.95;;;6.78;;
35715;SDS011;21840;44.920;8.616;2022-07-23T01:18:03;12.43;;;6.47;;
35715;SDS011;21840;44.920;8.616;2022-07-23T01:20:34;7.85;;;5.72;;
35715;SDS011;21840;44.920;8.616;2022-07-23T01:23:00;12.90;;;6.85;;
35715;SDS011;21840;44.920;8.616;2022-07-23T01:25:26;9.95;;;6.28;;
35715;SDS011;21840;44.920;8.616;2022-07-23T01:27:55;9.20;;;5.75;;
35715;SDS011;21840;44.920;8.616;2022-07-23T01:30:22;11.18;;;6.07;;
35715;SDS011;21840;44.920;8.616;2022-07-23T01:32:48;13.95;;;6.53;;
35715;SDS011;21840;44.920;8.616;2022-07-23T01:35:16;9.77;;;6.22;;
35715;SDS011;21840;44.920;8.616;2022-07-23T01:37:42;10.70;;;6.30;;
35715;SDS011;21840;44.920;8.616;2022-07-23T01:40:08;11.35;;;6.10;;
35715;SDS011;21840;44.920;8.616;2022-07-23T01:42:36;13.65;;;6.35;;
35715;SDS011;21840;44.920;8.616;2022-07-23T01:45:03;9.40;;;6.63;;
35715;SDS011;21840;44.920;8.616;2022-07-23T01:47:29;9.95;;;6.03;;
35715;SDS011;21840;44.920;8.616;2022-07-23T01:49:55;13.50;;;6.57;;
35715;SDS011;21840;44.920;8.616;2022-07-23T01:52:26;11.38;;;6.93;;
35715;SDS011;21840;44.920;8.616;2022-07-23T01:54:52;10.90;;;6.20;;
35715;SDS011;21840;44.920;8.616;2022-07-23T01:57:17;11.75;;;6.85;;
35715;SDS011;21840;44.920;8.616;2022-07-23T01:59:44;12.25;;;6.28;;
35715;SDS011;21840;44.920;8.616;2022-07-23T02:02:09;12.65;;;6.22;;
35715;SDS011;21840;44.920;8.616;2022-07-23T02:04:36;10.90;;;6.60;;
35715;SDS011;21840;44.920;8.616;2022-07-23T02:07:02;13.48;;;7.25;;
35715;SDS011;21840;44.920;8.616;2022-07-23T02:09:28;11.38;;;6.90;;
35715;SDS011;21840;44.920;8.616;2022-07-23T02:11:54;13.07;;;7.22;;
35715;SDS011;21840;44.920;8.616;2022-07-23T02:14:20;11.63;;;6.38;;
35715;SDS011;21840;44.920;8.616;2022-07-23T02:16:45;11.70;;;6.72;;
35715;SDS011;21840;44.920;8.616;2022-07-23T02:19:11;13.25;;;6.65;;
35715;SDS011;21840;44.920;8.616;2022-07-23T02:21:36;7.65;;;6.55;;
35715;SDS011;21840;44.920;8.616;2022-07-23T02:24:02;10.27;;;6.47;;
35715;SDS011;21840;44.920;8.616;2022-07-23T02:26:28;10.23;;;6.53;;
35715;SDS011;21840;44.920;8.616;2022-07-23T02:28:53;9.75;;;6.28;;
35715;SDS011;21840;44.920;8.616;2022-07-23T02:31:19;10.65;;;6.20;;
35715;SDS011;21840;44.920;8.616;2022-07-23T02:33:45;11.75;;;7.22;;
35715;SDS011;21840;44.920;8.616;2022-07-23T02:36:12;9.88;;;7.07;;
35715;SDS011;21840;44.920;8.616;2022-07-23T02:38:38;11.98;;;7.05;;
35715;SDS011;21840;44.920;8.616;2022-07-23T02:41:04;16.02;;;7.15;;
35715;SDS011;21840;44.920;8.616;2022-07-23T02:43:31;11.18;;;6.63;;
35715;SDS011;21840;44.920;8.616;2022-07-23T02:45:56;13.50;;;6.75;;
35715;SDS011;21840;44.920;8.616;2022-07-23T02:48:23;10.73;;;6.93;;
35715;SDS011;21840;44.920;8.616;2022-07-23T02:50:48;11.48;;;6.70;;
35715;SDS011;21840;44.920;8.616;2022-07-23T02:53:24;12.35;;;7.45;;
35715;SDS011;21840;44.920;8.616;2022-07-23T02:55:51;13.63;;;7.35;;
35715;SDS011;21840;44.920;8.616;2022-07-23T02:58:17;14.38;;;7.95;;
35715;SDS011;21840;44.920;8.616;2022-07-23T03:00:42;15.52;;;7.63;;
35715;SDS011;21840;44.920;8.616;2022-07-23T03:03:08;13.02;;;7.78;;
35715;SDS011;21840;44.920;8.616;2022-07-23T03:05:34;12.95;;;7.32;;
35715;SDS011;21840;44.920;8.616;2022-07-23T03:08:00;12.02;;;7.60;;
35715;SDS011;21840;44.920;8.616;2022-07-23T03:10:26;11.95;;;7.65;;
35715;SDS011;21840;44.920;8.616;2022-07-23T03:12:52;12.63;;;7.93;;
35715;SDS011;21840;44.920;8.616;2022-07-23T03:15:17;15.82;;;7.22;;
35715;SDS011;21840;44.920;8.616;2022-07-23T03:17:43;13.27;;;8.18;;
35715;SDS011;21840;44.920;8.616;2022-07-23T03:20:10;12.23;;;7.55;;
35715;SDS011;21840;44.920;8.616;2022-07-23T03:22:37;11.45;;;7.15;;
35715;SDS011;21840;44.920;8.616;2022-07-23T03:25:03;10.98;;;7.22;;
35715;SDS011;21840;44.920;8.616;2022-07-23T03:27:33;10.60;;;7.70;;
35715;SDS011;21840;44.920;8.616;2022-07-23T03:29:59;13.85;;;7.25;;
35715;SDS011;21840;44.920;8.616;2022-07-23T03:32:25;12.52;;;7.68;;
35715;SDS011;21840;44.920;8.616;2022-07-23T03:34:51;14.32;;;7.97;;
35715;SDS011;21840;44.920;8.616;2022-07-23T03:37:17;19.00;;;8.20;;
35715;SDS011;21840;44.920;8.616;2022-07-23T03:39:45;13.77;;;7.85;;
35715;SDS011;21840;44.920;8.616;2022-07-23T03:42:11;19.05;;;8.23;;
35715;SDS011;21840;44.920;8.616;2022-07-23T03:44:36;13.02;;;9.07;;
35715;SDS011;21840;44.920;8.616;2022-07-23T03:47:03;15.07;;;8.70;;
35715;SDS011;21840;44.920;8.616;2022-07-23T03:49:29;13.13;;;8.00;;
35715;SDS011;21840;44.920;8.616;2022-07-23T03:51:55;15.85;;;8.27;;
35715;SDS011;21840;44.920;8.616;2022-07-23T03:54:20;14.25;;;7.88;;
35715;SDS011;21840;44.920;8.616;2022-07-23T03:56:46;11.48;;;7.13;;
35715;SDS011;21840;44.920;8.616;2022-07-23T03:59:12;13.07;;;7.78;;
35715;SDS011;21840;44.920;8.616;2022-07-23T04:01:37;11.90;;;7.65;;
35715;SDS011;21840;44.920;8.616;2022-07-23T04:04:03;18.73;;;8.07;;
35715;SDS011;21840;44.920;8.616;2022-07-23T04:06:29;14.25;;;8.20;;
35715;SDS011;21840;44.920;8.616;2022-07-23T04:08:56;15.35;;;7.40;;
35715;SDS011;21840;44.920;8.616;2022-07-23T04:11:22;18.10;;;8.38;;
35715;SDS011;21840;44.920;8.616;2022-07-23T04:13:47;11.20;;;7.68;;
35715;SDS011;21840;44.920;8.616;2022-07-23T04:16:13;11.10;;;7.22;;
35715;SDS011;21840;44.920;8.616;2022-07-23T04:18:38;10.52;;;7.22;;
35715;SDS011;21840;44.920;8.616;2022-07-23T04:21:10;19.20;;;7.88;;
35715;SDS011;21840;44.920;8.616;2022-07-23T04:23:36;13.60;;;8.55;;
35715;SDS011;21840;44.920;8.616;2022-07-23T04:26:02;17.27;;;9.20;;
35715;SDS011;21840;44.920;8.616;2022-07-23T04:28:29;17.88;;;8.95;;
35715;SDS011;21840;44.920;8.616;2022-07-23T04:30:57;16.40;;;8.68;;
35715;SDS011;21840;44.920;8.616;2022-07-23T04:33:24;24.90;;;8.68;;
35715;SDS011;21840;44.920;8.616;2022-07-23T04:35:52;16.02;;;8.57;;
35715;SDS011;21840;44.920;8.616;2022-07-23T04:38:19;13.60;;;8.32;;
35715;SDS011;21840;44.920;8.616;2022-07-23T04:40:46;19.65;;;8.57;;
35715;SDS011;21840;44.920;8.616;2022-07-23T04:43:11;15.00;;;7.75;;
35715;SDS011;21840;44.920;8.616;2022-07-23T04:45:44;13.60;;;8.00;;
35715;SDS011;21840;44.920;8.616;2022-07-23T04:48:10;17.13;;;8.00;;
35715;SDS011;21840;44.920;8.616;2022-07-23T04:50:35;14.60;;;7.68;;
35715;SDS011;21840;44.920;8.616;2022-07-23T04:53:03;12.95;;;7.03;;
35715;SDS011;21840;44.920;8.616;2022-07-23T04:55:29;17.60;;;7.43;;
35715;SDS011;21840;44.920;8.616;2022-07-23T04:57:55;19.05;;;7.78;;
35715;SDS011;21840;44.920;8.616;2022-07-23T05:00:21;16.70;;;7.53;;
35715;SDS011;21840;44.920;8.616;2022-07-23T05:02:46;15.65;;;7.00;;
35715;SDS011;21840;44.920;8.616;2022-07-23T05:05:12;18.85;;;6.95;;
35715;SDS011;21840;44.920;8.616;2022-07-23T05:07:40;16.73;;;7.65;;
35715;SDS011;21840;44.920;8.616;2022-07-23T05:10:05;14.07;;;7.05;;
35715;SDS011;21840;44.920;8.616;2022-07-23T05:12:31;14.02;;;7.57;;
35715;SDS011;21840;44.920;8.616;2022-07-23T05:14:58;11.38;;;6.40;;
35715;SDS011;21840;44.920;8.616;2022-07-23T05:17:24;11.75;;;6.97;;
35715;SDS011;21840;44.920;8.616;2022-07-23T05:19:50;21.33;;;7.22;;
35715;SDS011;21840;44.920;8.616;2022-07-23T05:22:16;10.27;;;6.80;;
35715;SDS011;21840;44.920;8.616;2022-07-23T05:24:42;18.00;;;7.47;;
35715;SDS011;21840;44.920;8.616;2022-07-23T05:27:08;14.80;;;7.38;;
35715;SDS011;21840;44.920;8.616;2022-07-23T05:29:34;18.13;;;7.93;;
35715;SDS011;21840;44.920;8.616;2022-07-23T05:32:00;14.75;;;7.38;;
35715;SDS011;21840;44.920;8.616;2022-07-23T05:34:27;10.55;;;7.85;;
35715;SDS011;21840;44.920;8.616;2022-07-23T05:36:53;13.07;;;8.50;;
35715;SDS011;21840;44.920;8.616;2022-07-23T05:39:19;16.30;;;8.75;;
35715;SDS011;21840;44.920;8.616;2022-07-23T05:41:44;20.65;;;8.88;;
35715;SDS011;21840;44.920;8.616;2022-07-23T05:44:10;13.80;;;8.60;;
35715;SDS011;21840;44.920;8.616;2022-07-23T05:46:39;17.40;;;8.73;;
35715;SDS011;21840;44.920;8.616;2022-07-23T05:49:07;16.40;;;8.55;;
35715;SDS011;21840;44.920;8.616;2022-07-23T05:51:51;16.17;;;9.02;;
35715;SDS011;21840;44.920;8.616;2022-07-23T05:54:26;13.05;;;8.70;;
35715;SDS011;21840;44.920;8.616;2022-07-23T05:56:51;17.38;;;9.35;;
35715;SDS011;21840;44.920;8.616;2022-07-23T05:59:17;20.58;;;9.63;;
35715;SDS011;21840;44.920;8.616;2022-07-23T06:01:43;17.05;;;8.75;;
35715;SDS011;21840;44.920;8.616;2022-07-23T06:04:10;19.77;;;9.90;;
35715;SDS011;21840;44.920;8.616;2022-07-23T06:06:40;15.13;;;9.05;;
35715;SDS011;21840;44.920;8.616;2022-07-23T06:09:08;16.98;;;9.25;;
35715;SDS011;21840;44.920;8.616;2022-07-23T06:11:36;23.98;;;10.43;;
35715;SDS011;21840;44.920;8.616;2022-07-23T06:14:02;18.67;;;9.70;;
35715;SDS011;21840;44.920;8.616;2022-07-23T06:16:41;17.77;;;9.38;;
35715;SDS011;21840;44.920;8.616;2022-07-23T06:19:07;25.42;;;9.77;;
35715;SDS011;21840;44.920;8.616;2022-07-23T06:21:32;20.60;;;10.13;;
35715;SDS011;21840;44.920;8.616;2022-07-23T06:23:58;23.73;;;10.45;;
35715;SDS011;21840;44.920;8.616;2022-07-23T06:26:23;16.48;;;9.73;;
35715;SDS011;21840;44.920;8.616;2022-07-23T06:28:49;19.23;;;10.45;;
35715;SDS011;21840;44.920;8.616;2022-07-23T06:31:14;14.23;;;10.45;;
35715;SDS011;21840;44.920;8.616;2022-07-23T06:33:40;15.23;;;8.80;;
35715;SDS011;21840;44.920;8.616;2022-07-23T06:36:06;30.35;;;9.68;;
35715;SDS011;21840;44.920;8.616;2022-07-23T06:38:31;17.27;;;9.43;;
35715;SDS011;21840;44.920;8.616;2022-07-23T06:40:57;16.88;;;9.07;;
35715;SDS011;21840;44.920;8.616;2022-07-23T06:43:22;17.63;;;9.65;;
35715;SDS011;21840;44.920;8.616;2022-07-23T06:45:52;16.58;;;9.27;;
35715;SDS011;21840;44.920;8.616;2022-07-23T06:48:18;18.52;;;9.98;;
35715;SDS011;21840;44.920;8.616;2022-07-23T06:50:45;19.42;;;9.57;;
35715;SDS011;21840;44.920;8.616;2022-07-23T06:53:10;13.60;;;8.20;;
35715;SDS011;21840;44.920;8.616;2022-07-23T06:55:40;14.32;;;8.60;;
35715;SDS011;21840;44.920;8.616;2022-07-23T06:58:05;18.75;;;8.95;;
35715;SDS011;21840;44.920;8.616;2022-07-23T07:00:31;17.45;;;9.02;;
35715;SDS011;21840;44.920;8.616;2022-07-23T07:02:57;14.75;;;8.38;;
35715;SDS011;21840;44.920;8.616;2022-07-23T07:05:23;19.63;;;8.57;;
35715;SDS011;21840;44.920;8.616;2022-07-23T07:07:50;15.43;;;7.97;;
35715;SDS011;21840;44.920;8.616;2022-07-23T07:10:16;13.48;;;7.90;;
35715;SDS011;21840;44.920;8.616;2022-07-23T07:12:42;15.10;;;8.25;;
35715;SDS011;21840;44.920;8.616;2022-07-23T07:15:08;14.80;;;7.43;;
35715;SDS011;21840;44.920;8.616;2022-07-23T07:17:34;14.02;;;8.30;;
35715;SDS011;21840;44.920;8.616;2022-07-23T07:19:59;12.25;;;8.20;;
35715;SDS011;21840;44.920;8.616;2022-07-23T07:22:25;15.70;;;8.07;;
35715;SDS011;21840;44.920;8.616;2022-07-23T07:24:50;20.88;;;8.27;;
35715;SDS011;21840;44.920;8.616;2022-07-23T07:27:16;13.93;;;7.97;;
35715;SDS011;21840;44.920;8.616;2022-07-23T07:29:41;15.02;;;8.15;;
35715;SDS011;21840;44.920;8.616;2022-07-23T07:32:07;17.67;;;8.20;;
35715;SDS011;21840;44.920;8.616;2022-07-23T07:34:32;20.67;;;8.32;;
35715;SDS011;21840;44.920;8.616;2022-07-23T07:36:58;15.65;;;8.02;;
35715;SDS011;21840;44.920;8.616;2022-07-23T07:39:23;12.45;;;7.47;;
35715;SDS011;21840;44.920;8.616;2022-07-23T07:41:49;14.00;;;7.38;;
35715;SDS011;21840;44.920;8.616;2022-07-23T07:44:14;14.68;;;8.10;;
35715;SDS011;21840;44.920;8.616;2022-07-23T07:46:40;13.27;;;7.95;;
35715;SDS011;21840;44.920;8.616;2022-07-23T07:49:05;19.08;;;7.93;;
35715;SDS011;21840;44.920;8.616;2022-07-23T07:51:31;19.48;;;8.32;;
35715;SDS011;21840;44.920;8.616;2022-07-23T07:53:57;13.30;;;7.18;;
35715;SDS011;21840;44.920;8.616;2022-07-23T07:56:23;14.93;;;7.70;;
35715;SDS011;21840;44.920;8.616;2022-07-23T07:58:49;11.35;;;7.03;;
35715;SDS011;21840;44.920;8.616;2022-07-23T08:01:14;14.65;;;7.40;;
35715;SDS011;21840;44.920;8.616;2022-07-23T08:03:40;11.52;;;7.53;;
35715;SDS011;21840;44.920;8.616;2022-07-23T08:06:05;18.88;;;7.30;;
35715;SDS011;21840;44.920;8.616;2022-07-23T08:08:31;10.93;;;7.63;;
35715;SDS011;21840;44.920;8.616;2022-07-23T08:10:57;12.02;;;7.18;;
35715;SDS011;21840;44.920;8.616;2022-07-23T08:13:22;18.77;;;8.10;;
35715;SDS011;21840;44.920;8.616;2022-07-23T08:15:48;26.35;;;8.02;;
35715;SDS011;21840;44.920;8.616;2022-07-23T08:18:13;11.65;;;7.80;;
35715;SDS011;21840;44.920;8.616;2022-07-23T08:20:39;13.38;;;7.70;;
35715;SDS011;21840;44.920;8.616;2022-07-23T08:23:06;21.15;;;7.72;;
35715;SDS011;21840;44.920;8.616;2022-07-23T08:25:34;15.75;;;8.45;;
35715;SDS011;21840;44.920;8.616;2022-07-23T08:28:05;16.08;;;7.45;;
35715;SDS011;21840;44.920;8.616;2022-07-23T08:30:32;15.10;;;7.75;;
35715;SDS011;21840;44.920;8.616;2022-07-23T08:32:59;14.75;;;7.60;;
35715;SDS011;21840;44.920;8.616;2022-07-23T08:35:30;20.77;;;8.10;;
35715;SDS011;21840;44.920;8.616;2022-07-23T08:38:01;13.32;;;7.85;;
35715;SDS011;21840;44.920;8.616;2022-07-23T08:40:29;13.82;;;7.05;;
35715;SDS011;21840;44.920;8.616;2022-07-23T08:42:56;14.00;;;8.27;;
35715;SDS011;21840;44.920;8.616;2022-07-23T08:45:23;14.25;;;7.40;;
35715;SDS011;21840;44.920;8.616;2022-07-23T08:47:54;14.38;;;7.43;;
35715;SDS011;21840;44.920;8.616;2022-07-23T08:50:29;19.08;;;8.15;;
35715;SDS011;21840;44.920;8.616;2022-07-23T08:52:54;17.55;;;7.72;;
35715;SDS011;21840;44.920;8.616;2022-07-23T08:55:22;14.55;;;7.43;;
35715;SDS011;21840;44.920;8.616;2022-07-23T08:57:49;14.38;;;7.32;;
35715;SDS011;21840;44.920;8.616;2022-07-23T09:00:16;13.30;;;8.10;;
35715;SDS011;21840;44.920;8.616;2022-07-23T09:02:44;10.23;;;6.85;;
35715;SDS011;21840;44.920;8.616;2022-07-23T09:05:10;18.05;;;7.00;;
35715;SDS011;21840;44.920;8.616;2022-07-23T09:07:37;14.25;;;7.80;;
35715;SDS011;21840;44.920;8.616;2022-07-23T09:10:22;12.90;;;8.63;;
35715;SDS011;21840;44.920;8.616;2022-07-23T09:12:48;10.25;;;7.07;;
35715;SDS011;21840;44.920;8.616;2022-07-23T09:15:14;17.67;;;7.60;;
35715;SDS011;21840;44.920;8.616;2022-07-23T09:17:40;10.73;;;7.47;;
35715;SDS011;21840;44.920;8.616;2022-07-23T09:20:11;14.60;;;8.23;;
35715;SDS011;21840;44.920;8.616;2022-07-23T09:22:45;15.48;;;8.57;;
35715;SDS011;21840;44.920;8.616;2022-07-23T09:30:10;13.30;;;6.55;;
35715;SDS011;21840;44.920;8.616;2022-07-23T09:32:36;14.60;;;7.43;;
35715;SDS011;21840;44.920;8.616;2022-07-23T09:35:01;14.13;;;7.10;;
35715;SDS011;21840;44.920;8.616;2022-07-23T09:37:27;12.70;;;6.32;;
35715;SDS011;21840;44.920;8.616;2022-07-23T09:39:52;9.10;;;6.35;;
35715;SDS011;21840;44.920;8.616;2022-07-23T09:42:36;10.82;;;7.00;;
35715;SDS011;21840;44.920;8.616;2022-07-23T09:45:02;12.60;;;6.55;;
35715;SDS011;21840;44.920;8.616;2022-07-23T09:47:30;14.93;;;6.60;;
35715;SDS011;21840;44.920;8.616;2022-07-23T09:52:33;12.23;;;7.60;;
35715;SDS011;21840;44.920;8.616;2022-07-23T09:55:00;13.02;;;7.18;;
35715;SDS011;21840;44.920;8.616;2022-07-23T09:57:27;13.68;;;7.05;;
35715;SDS011;21840;44.920;8.616;2022-07-23T09:59:53;13.57;;;6.40;;
35715;SDS011;21840;44.920;8.616;2022-07-23T10:02:23;12.52;;;6.40;;
35715;SDS011;21840;44.920;8.616;2022-07-23T10:05:10;12.60;;;6.57;;
35715;SDS011;21840;44.920;8.616;2022-07-23T10:07:54;16.27;;;6.80;;
35715;SDS011;21840;44.920;8.616;2022-07-23T10:10:39;12.73;;;6.80;;
35715;SDS011;21840;44.920;8.616;2022-07-23T10:13:26;13.35;;;6.82;;
35715;SDS011;21840;44.920;8.616;2022-07-23T10:16:11;13.40;;;7.65;;
35715;SDS011;21840;44.920;8.616;2022-07-23T10:18:36;12.68;;;7.05;;
35715;SDS011;21840;44.920;8.616;2022-07-23T10:21:03;15.48;;;7.15;;
35715;SDS011;21840;44.920;8.616;2022-07-23T10:23:37;10.35;;;6.85;;
35715;SDS011;21840;44.920;8.616;2022-07-23T10:26:22;11.50;;;6.70;;
35715;SDS011;21840;44.920;8.616;2022-07-23T10:29:13;9.35;;;5.93;;
35715;SDS011;21840;44.920;8.616;2022-07-23T10:31:50;9.60;;;6.10;;
35715;SDS011;21840;44.920;8.616;2022-07-23T10:37:14;13.07;;;6.43;;
35715;SDS011;21840;44.920;8.616;2022-07-23T10:40:08;8.43;;;6.13;;
35715;SDS011;21840;44.920;8.616;2022-07-23T10:42:34;11.88;;;6.25;;
35715;SDS011;21840;44.920;8.616;2022-07-23T10:45:00;12.93;;;5.95;;
35715;SDS011;21840;44.920;8.616;2022-07-23T10:47:27;15.07;;;6.15;;
35715;SDS011;21840;44.920;8.616;2022-07-23T10:50:23;7.68;;;5.85;;
35715;SDS011;21840;44.920;8.616;2022-07-23T10:55:41;10.27;;;6.22;;
35715;SDS011;21840;44.920;8.616;2022-07-23T10:58:09;10.98;;;6.57;;
35715;SDS011;21840;44.920;8.616;2022-07-23T11:00:35;12.55;;;6.28;;
35715;SDS011;21840;44.920;8.616;2022-07-23T11:03:02;10.60;;;6.35;;
35715;SDS011;21840;44.920;8.616;2022-07-23T11:05:44;12.05;;;6.53;;
35715;SDS011;21840;44.920;8.616;2022-07-23T11:08:12;12.15;;;6.25;;
35715;SDS011;21840;44.920;8.616;2022-07-23T11:10:41;11.07;;;6.82;;
35715;SDS011;21840;44.920;8.616;2022-07-23T11:23:58;11.90;;;6.90;;
35715;SDS011;21840;44.920;8.616;2022-07-23T11:31:56;11.05;;;6.25;;
35715;SDS011;21840;44.920;8.616;2022-07-23T11:34:29;9.02;;;5.50;;
35715;SDS011;21840;44.920;8.616;2022-07-23T11:37:00;10.95;;;6.30;;
35715;SDS011;21840;44.920;8.616;2022-07-23T11:39:27;8.35;;;6.00;;
35715;SDS011;21840;44.920;8.616;2022-07-23T11:41:55;10.98;;;5.82;;
35715;SDS011;21840;44.920;8.616;2022-07-23T11:44:28;7.97;;;5.88;;
35715;SDS011;21840;44.920;8.616;2022-07-23T11:46:58;8.95;;;5.85;;
35715;SDS011;21840;44.920;8.616;2022-07-23T11:49:25;10.48;;;5.70;;
35715;SDS011;21840;44.920;8.616;2022-07-23T11:54:46;9.75;;;6.30;;
35715;SDS011;21840;44.920;8.616;2022-07-23T11:57:16;8.95;;;6.00;;
35715;SDS011;21840;44.920;8.616;2022-07-23T11:59:43;12.40;;;6.32;;
35715;SDS011;21840;44.920;8.616;2022-07-23T12:02:10;13.82;;;6.28;;
35715;SDS011;21840;44.920;8.616;2022-07-23T12:04:37;10.35;;;5.95;;
35715;SDS011;21840;44.920;8.616;2022-07-23T12:10:44;11.15;;;6.07;;
35715;SDS011;21840;44.920;8.616;2022-07-23T12:12:59;11.45;;;5.93;;
35715;SDS011;21840;44.920;8.616;2022-07-23T12:15:32;9.77;;;5.63;;
35715;SDS011;21840;44.920;8.616;2022-07-23T12:18:24;8.05;;;5.78;;
35715;SDS011;21840;44.920;8.616;2022-07-23T12:20:52;12.52;;;5.60;;
35715;SDS011;21840;44.920;8.616;2022-07-23T12:23:24;16.13;;;6.55;;
35715;SDS011;21840;44.920;8.616;2022-07-23T12:25:51;10.15;;;5.80;;
35715;SDS011;21840;44.920;8.616;2022-07-23T12:28:20;9.25;;;6.53;;
35715;SDS011;21840;44.920;8.616;2022-07-23T12:30:56;11.40;;;5.70;;
35715;SDS011;21840;44.920;8.616;2022-07-23T12:33:24;10.93;;;5.40;;
35715;SDS011;21840;44.920;8.616;2022-07-23T12:35:51;12.35;;;6.15;;
35715;SDS011;21840;44.920;8.616;2022-07-23T12:38:19;14.75;;;6.43;;
35715;SDS011;21840;44.920;8.616;2022-07-23T12:43:26;9.05;;;5.97;;
35715;SDS011;21840;44.920;8.616;2022-07-23T12:48:53;12.70;;;5.55;;
35715;SDS011;21840;44.920;8.616;2022-07-23T12:53:52;11.18;;;5.32;;
35715;SDS011;21840;44.920;8.616;2022-07-23T12:56:20;12.10;;;6.05;;
35715;SDS011;21840;44.920;8.616;2022-07-23T12:58:52;11.80;;;5.32;;
35715;SDS011;21840;44.920;8.616;2022-07-23T13:04:03;17.77;;;5.65;;
35715;SDS011;21840;44.920;8.616;2022-07-23T13:09:08;10.02;;;5.28;;
35715;SDS011;21840;44.920;8.616;2022-07-23T13:11:35;9.38;;;5.47;;
35715;SDS011;21840;44.920;8.616;2022-07-23T13:14:01;11.95;;;5.45;;
35715;SDS011;21840;44.920;8.616;2022-07-23T13:16:27;9.48;;;5.07;;
35715;SDS011;21840;44.920;8.616;2022-07-23T13:18:53;9.73;;;5.43;;
35715;SDS011;21840;44.920;8.616;2022-07-23T13:21:21;10.32;;;5.38;;
35715;SDS011;21840;44.920;8.616;2022-07-23T13:23:47;14.00;;;5.78;;
35715;SDS011;21840;44.920;8.616;2022-07-23T13:26:13;11.70;;;5.57;;
35715;SDS011;21840;44.920;8.616;2022-07-23T13:28:39;9.63;;;4.93;;
35715;SDS011;21840;44.920;8.616;2022-07-23T13:31:04;12.45;;;5.88;;
35715;SDS011;21840;44.920;8.616;2022-07-23T13:33:30;10.30;;;4.88;;
35715;SDS011;21840;44.920;8.616;2022-07-23T13:35:55;9.40;;;5.82;;
35715;SDS011;21840;44.920;8.616;2022-07-23T13:38:21;8.52;;;5.88;;
35715;SDS011;21840;44.920;8.616;2022-07-23T13:40:48;11.70;;;5.75;;
35715;SDS011;21840;44.920;8.616;2022-07-23T13:43:15;15.57;;;5.22;;
35715;SDS011;21840;44.920;8.616;2022-07-23T13:45:43;9.90;;;4.78;;
35715;SDS011;21840;44.920;8.616;2022-07-23T13:48:09;8.18;;;5.10;;
35715;SDS011;21840;44.920;8.616;2022-07-23T13:50:36;10.65;;;5.15;;
35715;SDS011;21840;44.920;8.616;2022-07-23T13:53:06;12.63;;;5.55;;
35715;SDS011;21840;44.920;8.616;2022-07-23T13:55:34;7.57;;;5.20;;
35715;SDS011;21840;44.920;8.616;2022-07-23T13:58:00;9.80;;;5.28;;
35715;SDS011;21840;44.920;8.616;2022-07-23T14:00:26;12.93;;;5.20;;
35715;SDS011;21840;44.920;8.616;2022-07-23T14:02:53;12.57;;;5.32;;
35715;SDS011;21840;44.920;8.616;2022-07-23T14:05:19;10.52;;;5.03;;
35715;SDS011;21840;44.920;8.616;2022-07-23T14:07:45;11.98;;;4.68;;
35715;SDS011;21840;44.920;8.616;2022-07-23T14:10:12;12.18;;;4.88;;
35715;SDS011;21840;44.920;8.616;2022-07-23T14:12:38;8.73;;;5.00;;
35715;SDS011;21840;44.920;8.616;2022-07-23T14:15:04;14.00;;;5.03;;
35715;SDS011;21840;44.920;8.616;2022-07-23T14:17:31;15.73;;;4.97;;
35715;SDS011;21840;44.920;8.616;2022-07-23T14:19:58;11.13;;;5.05;;
35715;SDS011;21840;44.920;8.616;2022-07-23T14:22:24;12.88;;;6.43;;
35715;SDS011;21840;44.920;8.616;2022-07-23T14:24:50;13.48;;;8.95;;
35715;SDS011;21840;44.920;8.616;2022-07-23T14:27:16;8.95;;;5.20;;
35715;SDS011;21840;44.920;8.616;2022-07-23T14:29:42;8.18;;;4.70;;
35715;SDS011;21840;44.920;8.616;2022-07-23T14:32:07;12.93;;;5.35;;
35715;SDS011;21840;44.920;8.616;2022-07-23T14:34:33;15.98;;;4.95;;
35715;SDS011;21840;44.920;8.616;2022-07-23T14:37:00;9.07;;;5.07;;
35715;SDS011;21840;44.920;8.616;2022-07-23T14:39:26;8.70;;;4.75;;
35715;SDS011;21840;44.920;8.616;2022-07-23T14:41:51;8.18;;;4.90;;
35715;SDS011;21840;44.920;8.616;2022-07-23T14:44:17;11.18;;;5.50;;
35715;SDS011;21840;44.920;8.616;2022-07-23T14:46:42;10.40;;;5.07;;
35715;SDS011;21840;44.920;8.616;2022-07-23T14:49:08;10.88;;;5.40;;
35715;SDS011;21840;44.920;8.616;2022-07-23T14:51:34;10.10;;;5.00;;
35715;SDS011;21840;44.920;8.616;2022-07-23T14:53:59;11.20;;;4.78;;
35715;SDS011;21840;44.920;8.616;2022-07-23T14:56:25;10.80;;;5.10;;
35715;SDS011;21840;44.920;8.616;2022-07-23T14:58:51;9.52;;;5.25;;
35715;SDS011;21840;44.920;8.616;2022-07-23T15:01:16;14.35;;;5.60;;
35715;SDS011;21840;44.920;8.616;2022-07-23T15:03:42;9.38;;;5.15;;
35715;SDS011;21840;44.920;8.616;2022-07-23T15:06:07;9.85;;;4.80;;
35715;SDS011;21840;44.920;8.616;2022-07-23T15:08:33;12.95;;;5.70;;
35715;SDS011;21840;44.920;8.616;2022-07-23T15:10:58;9.88;;;5.18;;
35715;SDS011;21840;44.920;8.616;2022-07-23T15:13:24;13.95;;;5.43;;
35715;SDS011;21840;44.920;8.616;2022-07-23T15:15:49;11.00;;;5.25;;
35715;SDS011;21840;44.920;8.616;2022-07-23T15:18:15;10.57;;;5.22;;
35715;SDS011;21840;44.920;8.616;2022-07-23T15:20:41;11.38;;;5.05;;
35715;SDS011;21840;44.920;8.616;2022-07-23T15:23:07;8.88;;;4.50;;
35715;SDS011;21840;44.920;8.616;2022-07-23T15:25:33;9.05;;;4.70;;